createdAt,value
2023-04-27T00:01:30.573Z,27.60
2023-04-27T00:06:35.215Z,28.50
2023-04-27T00:11:38.275Z,29.00
2023-04-27T00:16:41.440Z,37.40
2023-04-27T00:21:44.423Z,25.10
2023-04-27T00:26:47.441Z,28.20
2023-04-27T00:31:50.851Z,32.80
2023-04-27T00:36:53.899Z,26.80
2023-04-27T00:41:57.235Z,42.60
2023-04-27T00:47:00.157Z,64.50
2023-04-27T00:52:03.739Z,44.60
2023-04-27T00:57:06.791Z,29.70
2023-04-27T01:02:12.310Z,28.90
2023-04-27T01:07:15.284Z,30.10
2023-04-27T01:12:18.206Z,37.80
2023-04-27T01:17:22.074Z,25.00
2023-04-27T01:27:27.871Z,35.10
2023-04-27T01:32:30.887Z,29.50
2023-04-27T01:37:34.394Z,31.50
2023-04-27T01:42:37.398Z,31.30
2023-04-27T01:47:41.037Z,33.10
2023-04-27T01:52:44.147Z,31.60
2023-04-27T01:57:47.230Z,24.00
2023-04-27T02:02:57.738Z,25.00
2023-04-27T02:08:00.964Z,31.50
2023-04-27T02:13:04.023Z,27.30
2023-04-27T02:18:07.254Z,23.00
2023-04-27T02:23:11.809Z,34.70
2023-04-27T02:28:14.810Z,29.10
2023-04-27T02:33:18.194Z,26.60
2023-04-27T02:38:21.285Z,31.20
2023-04-27T02:43:24.259Z,25.00
2023-04-27T02:48:27.194Z,23.80
2023-04-27T02:53:30.225Z,21.20
2023-04-27T02:58:33.310Z,21.50
2023-04-27T03:03:36.372Z,34.40
2023-04-27T03:08:39.471Z,31.90
2023-04-27T03:13:42.536Z,29.70
2023-04-27T03:18:45.602Z,24.70
2023-04-27T03:23:48.547Z,30.00
2023-04-27T03:28:51.493Z,29.20
2023-04-27T03:33:54.534Z,24.00
2023-04-27T03:38:57.536Z,33.80
2023-04-27T03:44:00.781Z,26.10
2023-04-27T03:49:03.755Z,25.70
2023-04-27T03:54:06.751Z,28.60
2023-04-27T03:59:09.799Z,24.20
2023-04-27T04:04:13.010Z,25.20
2023-04-27T04:09:16.642Z,25.70
2023-04-27T04:14:19.686Z,21.30
2023-04-27T04:19:22.655Z,28.90
2023-04-27T04:24:25.623Z,27.60
2023-04-27T04:29:28.854Z,24.20
2023-04-27T04:34:32.175Z,23.70
2023-04-27T04:39:35.174Z,24.70
2023-04-27T04:44:38.861Z,21.70
2023-04-27T04:49:41.821Z,22.40
2023-04-27T04:54:44.792Z,26.40
2023-04-27T04:59:47.751Z,25.20
2023-04-27T05:04:52.501Z,23.70
2023-04-27T05:09:55.937Z,24.30
2023-04-27T05:14:58.902Z,22.60
2023-04-27T05:20:02.139Z,24.10
2023-04-27T05:25:06.714Z,26.70
2023-04-27T05:30:11.232Z,20.20
2023-04-27T05:35:14.238Z,22.60
2023-04-27T05:40:17.243Z,19.40
2023-04-27T05:45:20.592Z,22.20
2023-04-27T05:50:24.029Z,21.00
2023-04-27T05:55:27.028Z,23.30
2023-04-27T06:00:30.019Z,21.10
2023-04-27T06:05:34.494Z,21.60
2023-04-27T06:10:37.710Z,17.80
2023-04-27T06:15:40.662Z,20.50
2023-04-27T06:20:43.651Z,20.80
2023-04-27T06:25:46.657Z,20.80
2023-04-27T06:30:49.707Z,22.10
2023-04-27T06:35:52.675Z,19.90
2023-04-27T06:40:55.720Z,16.20
2023-04-27T06:45:59.019Z,17.30
2023-04-27T06:51:02.053Z,19.50
2023-04-27T06:56:06.582Z,17.60
2023-04-27T07:01:09.579Z,15.10
2023-04-27T07:06:12.672Z,19.40
2023-04-27T07:11:16.558Z,16.90
2023-04-27T07:16:19.997Z,15.10
2023-04-27T07:21:22.955Z,10.60
2023-04-27T07:26:32.126Z,12.10
2023-04-27T07:31:35.189Z,12.50
2023-04-27T07:36:38.330Z,14.50
2023-04-27T07:41:41.372Z,13.80
2023-04-27T07:46:44.403Z,11.80
2023-04-27T07:51:47.333Z,9.80
2023-04-27T07:56:50.328Z,8.30
2023-04-27T08:01:55.683Z,10.70
2023-04-27T08:07:03.368Z,11.00
2023-04-27T08:12:06.714Z,11.50
2023-04-27T08:17:09.688Z,7.70
2023-04-27T08:22:12.735Z,11.00
2023-04-27T08:27:15.886Z,13.20
2023-04-27T08:32:18.858Z,10.80
2023-04-27T08:37:21.974Z,14.30
2023-04-27T08:42:24.941Z,10.50
2023-04-27T08:47:39.093Z,8.90
2023-04-27T08:52:49.760Z,7.90
2023-04-27T08:57:57.873Z,10.80
2023-04-27T09:03:04.325Z,13.30
2023-04-27T09:08:08.424Z,9.50
2023-04-27T09:13:11.661Z,12.70
2023-04-27T09:18:24.081Z,10.00
2023-04-27T09:23:36.105Z,11.40
2023-04-27T09:28:40.496Z,14.20
2023-04-27T09:33:45.875Z,10.60
2023-04-27T09:38:52.468Z,9.80
2023-04-27T09:43:57.827Z,8.20
2023-04-27T09:49:05.112Z,13.50
2023-04-27T09:54:11.232Z,13.00
2023-04-27T09:59:48.754Z,10.10
2023-04-27T10:05:22.501Z,8.50
2023-04-27T10:10:25.624Z,8.10
2023-04-27T10:15:30.220Z,11.40
2023-04-27T10:20:38.216Z,10.70
2023-04-27T10:25:42.165Z,8.60
2023-04-27T10:30:49.091Z,8.40
2023-04-27T10:35:59.172Z,10.20
2023-04-27T10:41:05.779Z,11.40
2023-04-27T10:46:14.697Z,12.10
2023-04-27T10:51:18.128Z,12.60
2023-04-27T10:56:21.191Z,9.80
2023-04-27T11:01:29.618Z,9.30
2023-04-27T11:06:42.128Z,12.50
2023-04-27T11:11:46.334Z,9.80
2023-04-27T11:16:49.550Z,7.50
2023-04-27T11:21:52.546Z,8.70
2023-04-27T11:26:55.727Z,11.20
2023-04-27T11:31:59.005Z,9.40
2023-04-27T11:37:18.080Z,9.30
2023-04-27T11:42:31.715Z,9.20
2023-04-27T11:47:41.054Z,8.10
2023-04-27T11:52:49.567Z,8.80
2023-04-27T11:57:59.121Z,9.10
2023-04-27T12:03:03.597Z,12.70
2023-04-27T12:08:06.854Z,15.30
2023-04-27T12:13:09.792Z,9.20
2023-04-27T12:18:12.873Z,10.00
2023-04-27T12:23:15.910Z,15.00
2023-04-27T12:28:20.509Z,14.10
2023-04-27T12:33:23.635Z,13.00
2023-04-27T12:38:27.138Z,11.00
2023-04-27T12:43:30.120Z,10.80
2023-04-27T12:48:33.728Z,13.30
2023-04-27T12:53:36.715Z,11.40
2023-04-27T12:58:40.062Z,12.10
2023-04-27T13:03:48.023Z,15.90
2023-04-27T13:08:51.215Z,9.40
2023-04-27T13:13:55.290Z,13.60
2023-04-27T13:18:58.540Z,9.70
2023-04-27T13:24:01.504Z,10.40
2023-04-27T13:29:04.926Z,12.10
2023-04-27T13:34:07.984Z,9.50
2023-04-27T13:39:11.102Z,11.30
2023-04-27T13:44:14.270Z,10.00
2023-04-27T13:49:17.446Z,12.70
2023-04-27T13:54:21.644Z,10.10
2023-04-27T13:59:25.063Z,10.00
2023-04-27T14:04:28.072Z,9.20
2023-04-27T14:09:31.065Z,7.30
2023-04-27T14:14:35.874Z,11.90
2023-04-27T14:19:38.848Z,10.50
2023-04-27T14:24:41.794Z,12.00
2023-04-27T14:29:44.770Z,8.80
2023-04-27T14:34:47.729Z,9.50
2023-04-27T14:39:50.657Z,14.20
2023-04-27T14:44:53.589Z,9.40
2023-04-27T14:49:56.538Z,10.80
2023-04-27T14:54:59.485Z,14.20
2023-04-27T15:00:05.070Z,11.50
2023-04-27T15:05:09.128Z,14.20
2023-04-27T15:10:12.125Z,10.20
2023-04-27T15:15:15.347Z,12.20
2023-04-27T15:20:18.732Z,29.20
2023-04-27T15:25:21.945Z,14.30
2023-04-27T15:30:24.857Z,27.20
2023-04-27T15:35:27.817Z,13.90
2023-04-27T15:40:31.326Z,14.50
2023-04-27T15:45:34.416Z,15.00
2023-04-27T15:50:37.688Z,38.80
2023-04-27T15:55:40.816Z,14.40
2023-04-27T16:00:44.154Z,17.00
2023-04-27T16:05:51.095Z,38.80
2023-04-27T16:10:54.334Z,10.90
2023-04-27T16:15:57.417Z,11.40
2023-04-27T16:21:00.524Z,91.30
2023-04-27T16:26:03.506Z,34.30
2023-04-27T16:31:06.498Z,14.10
2023-04-27T16:36:11.314Z,14.80
2023-04-27T16:41:14.326Z,13.60
2023-04-27T16:46:17.577Z,18.00
2023-04-27T16:51:20.549Z,33.40
2023-04-27T16:56:28.830Z,53.80
2023-04-27T17:01:31.919Z,14.60
2023-04-27T17:06:35.032Z,14.70
2023-04-27T17:11:38.032Z,24.40
2023-04-27T17:16:41.154Z,27.30
2023-04-27T17:21:44.122Z,123.20
2023-04-27T17:26:48.359Z,327.50
2023-04-27T17:31:51.306Z,285.90
2023-04-27T17:36:54.405Z,402.80
2023-04-27T17:41:57.553Z,138.70
2023-04-27T17:47:00.904Z,88.60
2023-04-27T17:52:04.211Z,613.90
2023-04-27T17:57:07.200Z,553.30
2023-04-27T18:02:10.168Z,469.70
2023-04-27T18:07:13.358Z,297.70
2023-04-27T18:12:16.549Z,709.90
2023-04-27T18:17:19.507Z,404.60
2023-04-27T18:22:23.081Z,607.70
2023-04-27T18:27:27.149Z,161.50
2023-04-27T18:32:30.175Z,265.30
2023-04-27T18:37:33.363Z,65.10
2023-04-27T18:42:36.348Z,51.10
2023-04-27T18:47:39.972Z,40.90
2023-04-27T18:57:45.995Z,48.50
2023-04-27T19:02:49.043Z,57.50
2023-04-27T19:07:52.080Z,46.20
2023-04-27T19:12:56.103Z,39.20
2023-04-27T19:18:07.088Z,78.60
2023-04-27T19:23:13.698Z,140.80
2023-04-27T19:28:18.889Z,100.60
2023-04-27T19:33:21.950Z,66.60
2023-04-27T19:38:25.688Z,61.30
2023-04-27T19:43:29.179Z,40.80
2023-04-27T19:48:32.127Z,34.60
2023-04-27T19:53:35.122Z,806.90
2023-04-27T19:58:38.070Z,1720.60
2023-04-27T20:03:41.359Z,840.60
2023-04-27T20:08:44.425Z,233.90
2023-04-27T20:13:47.796Z,237.20
2023-04-27T20:18:51.825Z,895.30
2023-04-27T20:23:54.923Z,517.90
2023-04-27T20:28:57.832Z,69.00
2023-04-27T20:34:00.996Z,33.30
2023-04-27T20:39:05.593Z,30.20
2023-04-27T20:44:09.494Z,37.30
2023-04-27T20:49:13.604Z,71.90
2023-04-27T20:54:19.874Z,36.70
2023-04-27T20:59:22.824Z,53.40
2023-04-27T21:04:26.098Z,120.30
2023-04-27T21:09:29.125Z,122.70
2023-04-27T21:14:33.720Z,133.50
2023-04-27T21:19:36.700Z,198.00
2023-04-27T21:24:39.624Z,116.90
2023-04-27T21:29:42.582Z,86.60
2023-04-27T21:34:45.582Z,95.50
2023-04-27T21:39:48.511Z,61.20
2023-04-27T21:44:51.500Z,33.20
2023-04-27T21:49:54.451Z,33.30
2023-04-27T21:54:57.432Z,37.30
2023-04-27T22:00:00.671Z,52.20
2023-04-27T22:05:04.084Z,81.80
2023-04-27T22:10:07.697Z,80.10
2023-04-27T22:15:11.150Z,63.70
2023-04-27T22:20:14.585Z,32.40
2023-04-27T22:25:18.955Z,21.50
2023-04-27T22:30:21.961Z,24.50
2023-04-27T22:35:27.643Z,29.20
2023-04-27T22:40:31.009Z,27.60
2023-04-27T22:45:34.916Z,26.50
2023-04-27T22:50:38.628Z,26.10
2023-04-27T22:55:41.570Z,24.20
2023-04-27T23:00:44.567Z,27.50
2023-04-27T23:05:47.793Z,27.20
2023-04-27T23:10:53.346Z,33.10
2023-04-27T23:15:56.350Z,44.10
2023-04-27T23:20:59.283Z,29.40
2023-04-27T23:26:02.544Z,26.20
2023-04-27T23:31:05.638Z,20.70
2023-04-27T23:36:08.841Z,23.20
2023-04-27T23:41:12.151Z,24.10
2023-04-27T23:46:15.142Z,22.00
2023-04-27T23:51:18.113Z,26.10
2023-04-27T23:56:21.295Z,24.20
